sensor_id;sensor_type;location;lat;lon;timestamp;P1;P2;P0
70436;PMS5003;57877;39.750;-104.894;2024-01-30T00:00:31;0;0;
70436;PMS5003;57877;39.750;-104.894;2024-01-30T00:02:56;5;5;
70436;PMS5003;57877;39.750;-104.894;2024-01-30T00:05:21;0;0;
70436;PMS5003;57877;39.750;-104.894;2024-01-30T00:07:46;0;0;
70436;PMS5003;57877;39.750;-104.894;2024-01-30T00:10:11;0;0;
70436;PMS5003;57877;39.750;-104.894;2024-01-30T00:12:36;0;0;
70436;PMS5003;57877;39.750;-104.894;2024-01-30T00:15:01;0;0;
70436;PMS5003;57877;39.750;-104.894;2024-01-30T00:17:26;0;0;
70436;PMS5003;57877;39.750;-104.894;2024-01-30T00:19:51;0;0;
70436;PMS5003;57877;39.750;-104.894;2024-01-30T00:22:16;0;0;
70436;PMS5003;57877;39.750;-104.894;2024-01-30T00:24:42;0;0;
70436;PMS5003;57877;39.750;-104.894;2024-01-30T00:27:07;0;0;
70436;PMS5003;57877;39.750;-104.894;2024-01-30T00:29:32;0;0;
70436;PMS5003;57877;39.750;-104.894;2024-01-30T00:31:57;0;0;
70436;PMS5003;57877;39.750;-104.894;2024-01-30T00:34:22;0;0;
70436;PMS5003;57877;39.750;-104.894;2024-01-30T00:36:47;0;0;
70436;PMS5003;57877;39.750;-104.894;2024-01-30T00:39:12;0;0;
70436;PMS5003;57877;39.750;-104.894;2024-01-30T00:41:37;1;0;
70436;PMS5003;57877;39.750;-104.894;2024-01-30T00:44:02;0;0;
70436;PMS5003;57877;39.750;-104.894;2024-01-30T00:46:27;0;0;
70436;PMS5003;57877;39.750;-104.894;2024-01-30T00:48:52;0;0;
70436;PMS5003;57877;39.750;-104.894;2024-01-30T00:51:17;0;0;
70436;PMS5003;57877;39.750;-104.894;2024-01-30T00:53:42;0;0;
70436;PMS5003;57877;39.750;-104.894;2024-01-30T00:56:07;0;0;
70436;PMS5003;57877;39.750;-104.894;2024-01-30T00:58:33;0;0;
70436;PMS5003;57877;39.750;-104.894;2024-01-30T01:00:58;0;0;
70436;PMS5003;57877;39.750;-104.894;2024-01-30T01:03:23;1;1;
70436;PMS5003;57877;39.750;-104.894;2024-01-30T01:05:48;0;0;
70436;PMS5003;57877;39.750;-104.894;2024-01-30T01:08:13;1;1;
70436;PMS5003;57877;39.750;-104.894;2024-01-30T01:10:38;0;0;
70436;PMS5003;57877;39.750;-104.894;2024-01-30T01:13:03;0;0;
70436;PMS5003;57877;39.750;-104.894;2024-01-30T01:15:28;0;0;
70436;PMS5003;57877;39.750;-104.894;2024-01-30T01:17:53;0;0;
70436;PMS5003;57877;39.750;-104.894;2024-01-30T01:20:18;0;0;
70436;PMS5003;57877;39.750;-104.894;2024-01-30T01:22:44;0;0;
70436;PMS5003;57877;39.750;-104.894;2024-01-30T01:25:09;0;0;
70436;PMS5003;57877;39.750;-104.894;2024-01-30T01:27:34;0;0;
70436;PMS5003;57877;39.750;-104.894;2024-01-30T01:29:59;0;0;
70436;PMS5003;57877;39.750;-104.894;2024-01-30T01:32:24;0;0;
70436;PMS5003;57877;39.750;-104.894;2024-01-30T01:34:49;0;0;
70436;PMS5003;57877;39.750;-104.894;2024-01-30T01:37:14;1;1;
70436;PMS5003;57877;39.750;-104.894;2024-01-30T01:39:39;0;0;
70436;PMS5003;57877;39.750;-104.894;2024-01-30T01:42:04;0;0;
70436;PMS5003;57877;39.750;-104.894;2024-01-30T01:44:29;1;1;
70436;PMS5003;57877;39.750;-104.894;2024-01-30T01:46:54;3;3;
70436;PMS5003;57877;39.750;-104.894;2024-01-30T01:49:19;1;1;
70436;PMS5003;57877;39.750;-104.894;2024-01-30T01:51:44;2;2;
70436;PMS5003;57877;39.750;-104.894;2024-01-30T01:54:10;1;1;
70436;PMS5003;57877;39.750;-104.894;2024-01-30T01:56:35;1;1;
70436;PMS5003;57877;39.750;-104.894;2024-01-30T01:59:00;0;0;
70436;PMS5003;57877;39.750;-104.894;2024-01-30T02:01:25;2;2;
70436;PMS5003;57877;39.750;-104.894;2024-01-30T02:03:50;2;1;
70436;PMS5003;57877;39.750;-104.894;2024-01-30T02:06:15;1;1;
70436;PMS5003;57877;39.750;-104.894;2024-01-30T02:08:40;1;1;
70436;PMS5003;57877;39.750;-104.894;2024-01-30T02:11:05;3;3;
70436;PMS5003;57877;39.750;-104.894;2024-01-30T02:13:30;2;2;
70436;PMS5003;57877;39.750;-104.894;2024-01-30T02:15:55;2;2;
70436;PMS5003;57877;39.750;-104.894;2024-01-30T02:18:20;2;2;
70436;PMS5003;57877;39.750;-104.894;2024-01-30T02:20:46;1;1;
70436;PMS5003;57877;39.750;-104.894;2024-01-30T02:23:11;3;2;
70436;PMS5003;57877;39.750;-104.894;2024-01-30T02:25:38;3;3;
70436;PMS5003;57877;39.750;-104.894;2024-01-30T02:28:01;0;0;
70436;PMS5003;57877;39.750;-104.894;2024-01-30T02:30:26;1;1;
70436;PMS5003;57877;39.750;-104.894;2024-01-30T02:32:51;1;1;
70436;PMS5003;57877;39.750;-104.894;2024-01-30T02:35:16;1;1;
70436;PMS5003;57877;39.750;-104.894;2024-01-30T02:37:41;2;2;
70436;PMS5003;57877;39.750;-104.894;2024-01-30T02:40:07;3;3;
70436;PMS5003;57877;39.750;-104.894;2024-01-30T02:42:31;4;4;
70436;PMS5003;57877;39.750;-104.894;2024-01-30T02:44:56;4;3;
70436;PMS5003;57877;39.750;-104.894;2024-01-30T02:47:21;3;2;
70436;PMS5003;57877;39.750;-104.894;2024-01-30T02:49:46;2;1;
70436;PMS5003;57877;39.750;-104.894;2024-01-30T02:52:12;2;2;
70436;PMS5003;57877;39.750;-104.894;2024-01-30T02:54:37;2;2;
70436;PMS5003;57877;39.750;-104.894;2024-01-30T02:57:02;2;2;
70436;PMS5003;57877;39.750;-104.894;2024-01-30T02:59:27;2;1;
70436;PMS5003;57877;39.750;-104.894;2024-01-30T03:01:52;2;1;
70436;PMS5003;57877;39.750;-104.894;2024-01-30T03:04:17;3;3;
70436;PMS5003;57877;39.750;-104.894;2024-01-30T03:06:44;3;3;
70436;PMS5003;57877;39.750;-104.894;2024-01-30T03:09:08;4;4;
70436;PMS5003;57877;39.750;-104.894;2024-01-30T03:11:32;5;5;
70436;PMS5003;57877;39.750;-104.894;2024-01-30T03:13:57;6;6;
70436;PMS5003;57877;39.750;-104.894;2024-01-30T03:16:22;6;6;
70436;PMS5003;57877;39.750;-104.894;2024-01-30T03:18:48;7;6;
70436;PMS5003;57877;39.750;-104.894;2024-01-30T03:21:13;7;7;
70436;PMS5003;57877;39.750;-104.894;2024-01-30T03:23:38;6;5;
70436;PMS5003;57877;39.750;-104.894;2024-01-30T03:26:03;5;5;
70436;PMS5003;57877;39.750;-104.894;2024-01-30T03:28:28;5;5;
70436;PMS5003;57877;39.750;-104.894;2024-01-30T03:30:53;4;4;
70436;PMS5003;57877;39.750;-104.894;2024-01-30T03:33:18;3;2;
70436;PMS5003;57877;39.750;-104.894;2024-01-30T03:35:43;3;3;
70436;PMS5003;57877;39.750;-104.894;2024-01-30T03:38:08;3;3;
70436;PMS5003;57877;39.750;-104.894;2024-01-30T03:40:33;4;4;
70436;PMS5003;57877;39.750;-104.894;2024-01-30T03:42:59;3;2;
70436;PMS5003;57877;39.750;-104.894;2024-01-30T03:45:24;4;4;
70436;PMS5003;57877;39.750;-104.894;2024-01-30T03:47:49;6;5;
70436;PMS5003;57877;39.750;-104.894;2024-01-30T03:50:14;3;3;
70436;PMS5003;57877;39.750;-104.894;2024-01-30T03:52:38;5;5;
70436;PMS5003;57877;39.750;-104.894;2024-01-30T03:55:05;3;3;
70436;PMS5003;57877;39.750;-104.894;2024-01-30T03:57:30;3;3;
70436;PMS5003;57877;39.750;-104.894;2024-01-30T03:59:55;3;3;
70436;PMS5003;57877;39.750;-104.894;2024-01-30T04:02:21;2;2;
70436;PMS5003;57877;39.750;-104.894;2024-01-30T04:04:47;4;4;
70436;PMS5003;57877;39.750;-104.894;2024-01-30T04:07:13;3;3;
70436;PMS5003;57877;39.750;-104.894;2024-01-30T04:09:38;1;1;
70436;PMS5003;57877;39.750;-104.894;2024-01-30T04:12:03;0;0;
70436;PMS5003;57877;39.750;-104.894;2024-01-30T04:14:28;2;2;
70436;PMS5003;57877;39.750;-104.894;2024-01-30T04:16:54;3;3;
70436;PMS5003;57877;39.750;-104.894;2024-01-30T04:19:19;1;1;
70436;PMS5003;57877;39.750;-104.894;2024-01-30T04:21:44;3;3;
70436;PMS5003;57877;39.750;-104.894;2024-01-30T04:24:09;1;1;
70436;PMS5003;57877;39.750;-104.894;2024-01-30T04:26:34;2;1;
70436;PMS5003;57877;39.750;-104.894;2024-01-30T04:28:59;2;1;
70436;PMS5003;57877;39.750;-104.894;2024-01-30T04:31:24;1;1;
70436;PMS5003;57877;39.750;-104.894;2024-01-30T04:33:49;1;1;
70436;PMS5003;57877;39.750;-104.894;2024-01-30T04:36:14;1;1;
70436;PMS5003;57877;39.750;-104.894;2024-01-30T04:38:39;2;2;
70436;PMS5003;57877;39.750;-104.894;2024-01-30T04:41:05;2;1;
70436;PMS5003;57877;39.750;-104.894;2024-01-30T04:43:31;2;1;
70436;PMS5003;57877;39.750;-104.894;2024-01-30T04:45:57;4;2;
70436;PMS5003;57877;39.750;-104.894;2024-01-30T04:48:23;1;1;
70436;PMS5003;57877;39.750;-104.894;2024-01-30T04:50:48;0;0;
70436;PMS5003;57877;39.750;-104.894;2024-01-30T04:53:14;0;0;
70436;PMS5003;57877;39.750;-104.894;2024-01-30T04:55:40;1;1;
70436;PMS5003;57877;39.750;-104.894;2024-01-30T04:58:06;1;0;
70436;PMS5003;57877;39.750;-104.894;2024-01-30T05:00:32;0;0;
70436;PMS5003;57877;39.750;-104.894;2024-01-30T05:02:57;0;0;
70436;PMS5003;57877;39.750;-104.894;2024-01-30T05:05:22;0;0;
70436;PMS5003;57877;39.750;-104.894;2024-01-30T05:07:47;0;0;
70436;PMS5003;57877;39.750;-104.894;2024-01-30T05:10:12;1;0;
70436;PMS5003;57877;39.750;-104.894;2024-01-30T05:12:38;1;1;
70436;PMS5003;57877;39.750;-104.894;2024-01-30T05:15:03;2;1;
70436;PMS5003;57877;39.750;-104.894;2024-01-30T05:17:28;0;0;
70436;PMS5003;57877;39.750;-104.894;2024-01-30T05:19:54;1;0;
70436;PMS5003;57877;39.750;-104.894;2024-01-30T05:22:19;0;0;
70436;PMS5003;57877;39.750;-104.894;2024-01-30T05:24:44;1;1;
70436;PMS5003;57877;39.750;-104.894;2024-01-30T05:27:10;2;2;
70436;PMS5003;57877;39.750;-104.894;2024-01-30T05:29:35;0;0;
70436;PMS5003;57877;39.750;-104.894;2024-01-30T05:32:00;0;0;
70436;PMS5003;57877;39.750;-104.894;2024-01-30T05:34:25;0;0;
70436;PMS5003;57877;39.750;-104.894;2024-01-30T05:36:50;1;1;
70436;PMS5003;57877;39.750;-104.894;2024-01-30T05:39:15;1;1;
70436;PMS5003;57877;39.750;-104.894;2024-01-30T05:41:40;0;0;
70436;PMS5003;57877;39.750;-104.894;2024-01-30T05:44:05;0;0;
70436;PMS5003;57877;39.750;-104.894;2024-01-30T05:46:30;2;2;
70436;PMS5003;57877;39.750;-104.894;2024-01-30T05:48:55;0;0;
70436;PMS5003;57877;39.750;-104.894;2024-01-30T05:51:20;0;0;
70436;PMS5003;57877;39.750;-104.894;2024-01-30T05:53:45;0;0;
70436;PMS5003;57877;39.750;-104.894;2024-01-30T05:56:10;1;1;
70436;PMS5003;57877;39.750;-104.894;2024-01-30T05:58:35;0;0;
70436;PMS5003;57877;39.750;-104.894;2024-01-30T06:01:00;0;0;
70436;PMS5003;57877;39.750;-104.894;2024-01-30T06:03:25;0;0;
70436;PMS5003;57877;39.750;-104.894;2024-01-30T06:05:51;1;1;
70436;PMS5003;57877;39.750;-104.894;2024-01-30T06:08:15;0;0;
70436;PMS5003;57877;39.750;-104.894;2024-01-30T06:10:40;1;0;
70436;PMS5003;57877;39.750;-104.894;2024-01-30T06:13:05;6;6;
70436;PMS5003;57877;39.750;-104.894;2024-01-30T06:15:30;5;5;
70436;PMS5003;57877;39.750;-104.894;2024-01-30T06:17:56;5;5;
70436;PMS5003;57877;39.750;-104.894;2024-01-30T06:20:21;5;5;
70436;PMS5003;57877;39.750;-104.894;2024-01-30T06:22:46;6;6;
70436;PMS5003;57877;39.750;-104.894;2024-01-30T06:25:11;3;3;
70436;PMS5003;57877;39.750;-104.894;2024-01-30T06:27:36;2;2;
70436;PMS5003;57877;39.750;-104.894;2024-01-30T06:30:01;3;2;
70436;PMS5003;57877;39.750;-104.894;2024-01-30T06:32:26;0;0;
70436;PMS5003;57877;39.750;-104.894;2024-01-30T06:34:51;0;0;
70436;PMS5003;57877;39.750;-104.894;2024-01-30T06:37:16;0;0;
70436;PMS5003;57877;39.750;-104.894;2024-01-30T06:39:41;0;0;
70436;PMS5003;57877;39.750;-104.894;2024-01-30T06:42:06;0;0;
70436;PMS5003;57877;39.750;-104.894;2024-01-30T06:44:31;0;0;
70436;PMS5003;57877;39.750;-104.894;2024-01-30T06:46:56;0;0;
70436;PMS5003;57877;39.750;-104.894;2024-01-30T06:49:21;0;0;
70436;PMS5003;57877;39.750;-104.894;2024-01-30T06:51:46;0;0;
70436;PMS5003;57877;39.750;-104.894;2024-01-30T06:54:11;0;0;
70436;PMS5003;57877;39.750;-104.894;2024-01-30T06:56:36;0;0;
70436;PMS5003;57877;39.750;-104.894;2024-01-30T06:59:01;1;1;
70436;PMS5003;57877;39.750;-104.894;2024-01-30T07:01:27;0;0;
70436;PMS5003;57877;39.750;-104.894;2024-01-30T07:03:52;0;0;
70436;PMS5003;57877;39.750;-104.894;2024-01-30T07:06:17;0;0;
70436;PMS5003;57877;39.750;-104.894;2024-01-30T07:08:42;0;0;
70436;PMS5003;57877;39.750;-104.894;2024-01-30T07:11:07;0;0;
70436;PMS5003;57877;39.750;-104.894;2024-01-30T07:13:32;1;0;
70436;PMS5003;57877;39.750;-104.894;2024-01-30T07:15:57;0;0;
70436;PMS5003;57877;39.750;-104.894;2024-01-30T07:18:22;0;0;
70436;PMS5003;57877;39.750;-104.894;2024-01-30T07:20:47;0;0;
70436;PMS5003;57877;39.750;-104.894;2024-01-30T07:23:12;0;0;
70436;PMS5003;57877;39.750;-104.894;2024-01-30T07:25:37;0;0;
70436;PMS5003;57877;39.750;-104.894;2024-01-30T07:28:02;0;0;
70436;PMS5003;57877;39.750;-104.894;2024-01-30T07:30:27;0;0;
70436;PMS5003;57877;39.750;-104.894;2024-01-30T07:32:53;0;0;
70436;PMS5003;57877;39.750;-104.894;2024-01-30T07:35:19;0;0;
70436;PMS5003;57877;39.750;-104.894;2024-01-30T07:37:44;0;0;
70436;PMS5003;57877;39.750;-104.894;2024-01-30T07:40:10;0;0;
70436;PMS5003;57877;39.750;-104.894;2024-01-30T07:42:34;0;0;
70436;PMS5003;57877;39.750;-104.894;2024-01-30T07:45:00;0;0;
70436;PMS5003;57877;39.750;-104.894;2024-01-30T07:47:25;0;0;
70436;PMS5003;57877;39.750;-104.894;2024-01-30T07:49:50;0;0;
70436;PMS5003;57877;39.750;-104.894;2024-01-30T07:52:15;0;0;
70436;PMS5003;57877;39.750;-104.894;2024-01-30T07:57:05;0;0;
70436;PMS5003;57877;39.750;-104.894;2024-01-30T07:59:30;0;0;
70436;PMS5003;57877;39.750;-104.894;2024-01-30T08:01:55;0;0;
70436;PMS5003;57877;39.750;-104.894;2024-01-30T08:04:20;0;0;
70436;PMS5003;57877;39.750;-104.894;2024-01-30T08:06:45;0;0;
70436;PMS5003;57877;39.750;-104.894;2024-01-30T08:09:10;0;0;
70436;PMS5003;57877;39.750;-104.894;2024-01-30T08:11:35;0;0;
70436;PMS5003;57877;39.750;-104.894;2024-01-30T08:14:00;0;0;
70436;PMS5003;57877;39.750;-104.894;2024-01-30T08:16:25;0;0;
70436;PMS5003;57877;39.750;-104.894;2024-01-30T08:18:50;1;0;
70436;PMS5003;57877;39.750;-104.894;2024-01-30T08:21:16;0;0;
70436;PMS5003;57877;39.750;-104.894;2024-01-30T08:23:41;0;0;
70436;PMS5003;57877;39.750;-104.894;2024-01-30T08:26:06;0;0;
70436;PMS5003;57877;39.750;-104.894;2024-01-30T08:28:31;0;0;
70436;PMS5003;57877;39.750;-104.894;2024-01-30T08:30:56;0;0;
70436;PMS5003;57877;39.750;-104.894;2024-01-30T08:33:21;0;0;
70436;PMS5003;57877;39.750;-104.894;2024-01-30T08:35:46;0;0;
70436;PMS5003;57877;39.750;-104.894;2024-01-30T08:38:12;0;0;
70436;PMS5003;57877;39.750;-104.894;2024-01-30T08:40:37;1;1;
70436;PMS5003;57877;39.750;-104.894;2024-01-30T08:43:02;0;0;
70436;PMS5003;57877;39.750;-104.894;2024-01-30T08:45:27;0;0;
70436;PMS5003;57877;39.750;-104.894;2024-01-30T08:47:52;0;0;
70436;PMS5003;57877;39.750;-104.894;2024-01-30T08:50:17;0;0;
70436;PMS5003;57877;39.750;-104.894;2024-01-30T08:52:42;0;0;
70436;PMS5003;57877;39.750;-104.894;2024-01-30T08:55:07;0;0;
70436;PMS5003;57877;39.750;-104.894;2024-01-30T08:57:33;0;0;
70436;PMS5003;57877;39.750;-104.894;2024-01-30T08:59:57;0;0;
70436;PMS5003;57877;39.750;-104.894;2024-01-30T09:02:22;0;0;
70436;PMS5003;57877;39.750;-104.894;2024-01-30T09:04:47;0;0;
70436;PMS5003;57877;39.750;-104.894;2024-01-30T09:07:12;0;0;
70436;PMS5003;57877;39.750;-104.894;2024-01-30T09:09:38;0;0;
70436;PMS5003;57877;39.750;-104.894;2024-01-30T09:12:03;0;0;
70436;PMS5003;57877;39.750;-104.894;2024-01-30T09:14:28;0;0;
70436;PMS5003;57877;39.750;-104.894;2024-01-30T09:16:53;0;0;
70436;PMS5003;57877;39.750;-104.894;2024-01-30T09:19:18;0;0;
70436;PMS5003;57877;39.750;-104.894;2024-01-30T09:21:43;0;0;
70436;PMS5003;57877;39.750;-104.894;2024-01-30T09:24:08;0;0;
70436;PMS5003;57877;39.750;-104.894;2024-01-30T09:26:33;0;0;
70436;PMS5003;57877;39.750;-104.894;2024-01-30T09:28:58;0;0;
70436;PMS5003;57877;39.750;-104.894;2024-01-30T09:31:23;0;0;
70436;PMS5003;57877;39.750;-104.894;2024-01-30T09:33:48;0;0;
70436;PMS5003;57877;39.750;-104.894;2024-01-30T09:36:13;0;0;
70436;PMS5003;57877;39.750;-104.894;2024-01-30T09:38:38;0;0;
70436;PMS5003;57877;39.750;-104.894;2024-01-30T09:41:04;0;0;
70436;PMS5003;57877;39.750;-104.894;2024-01-30T09:43:29;0;0;
70436;PMS5003;57877;39.750;-104.894;2024-01-30T09:45:54;0;0;
70436;PMS5003;57877;39.750;-104.894;2024-01-30T09:48:19;0;0;
70436;PMS5003;57877;39.750;-104.894;2024-01-30T09:50:44;0;0;
70436;PMS5003;57877;39.750;-104.894;2024-01-30T09:53:09;0;0;
70436;PMS5003;57877;39.750;-104.894;2024-01-30T09:55:34;0;0;
70436;PMS5003;57877;39.750;-104.894;2024-01-30T09:57:59;0;0;
70436;PMS5003;57877;39.750;-104.894;2024-01-30T10:00:24;0;0;
70436;PMS5003;57877;39.750;-104.894;2024-01-30T10:02:49;0;0;
70436;PMS5003;57877;39.750;-104.894;2024-01-30T10:05:15;0;0;
70436;PMS5003;57877;39.750;-104.894;2024-01-30T10:07:49;0;0;
70436;PMS5003;57877;39.750;-104.894;2024-01-30T10:10:05;0;0;
70436;PMS5003;57877;39.750;-104.894;2024-01-30T10:12:30;0;0;
70436;PMS5003;57877;39.750;-104.894;2024-01-30T10:14:56;0;0;
70436;PMS5003;57877;39.750;-104.894;2024-01-30T10:17:20;0;0;
70436;PMS5003;57877;39.750;-104.894;2024-01-30T10:19:45;0;0;
70436;PMS5003;57877;39.750;-104.894;2024-01-30T10:22:10;0;0;
70436;PMS5003;57877;39.750;-104.894;2024-01-30T10:24:35;0;0;
70436;PMS5003;57877;39.750;-104.894;2024-01-30T10:27:00;0;0;
70436;PMS5003;57877;39.750;-104.894;2024-01-30T10:29:26;0;0;
70436;PMS5003;57877;39.750;-104.894;2024-01-30T10:34:15;0;0;
70436;PMS5003;57877;39.750;-104.894;2024-01-30T10:36:40;0;0;
70436;PMS5003;57877;39.750;-104.894;2024-01-30T10:39:05;0;0;
70436;PMS5003;57877;39.750;-104.894;2024-01-30T10:41:31;0;0;
70436;PMS5003;57877;39.750;-104.894;2024-01-30T10:43:58;0;0;
70436;PMS5003;57877;39.750;-104.894;2024-01-30T10:46:20;0;0;
70436;PMS5003;57877;39.750;-104.894;2024-01-30T10:48:46;0;0;
70436;PMS5003;57877;39.750;-104.894;2024-01-30T10:51:11;0;0;
70436;PMS5003;57877;39.750;-104.894;2024-01-30T10:53:36;0;0;
70436;PMS5003;57877;39.750;-104.894;2024-01-30T10:56:01;0;0;
70436;PMS5003;57877;39.750;-104.894;2024-01-30T10:58:26;0;0;
70436;PMS5003;57877;39.750;-104.894;2024-01-30T11:00:51;0;0;
70436;PMS5003;57877;39.750;-104.894;2024-01-30T11:03:16;0;0;
70436;PMS5003;57877;39.750;-104.894;2024-01-30T11:05:41;0;0;
70436;PMS5003;57877;39.750;-104.894;2024-01-30T11:08:11;0;0;
70436;PMS5003;57877;39.750;-104.894;2024-01-30T11:10:31;0;0;
70436;PMS5003;57877;39.750;-104.894;2024-01-30T11:12:56;0;0;
70436;PMS5003;57877;39.750;-104.894;2024-01-30T11:15:21;0;0;
70436;PMS5003;57877;39.750;-104.894;2024-01-30T11:17:50;0;0;
70436;PMS5003;57877;39.750;-104.894;2024-01-30T11:20:12;0;0;
70436;PMS5003;57877;39.750;-104.894;2024-01-30T11:22:36;0;0;
70436;PMS5003;57877;39.750;-104.894;2024-01-30T11:25:02;0;0;
70436;PMS5003;57877;39.750;-104.894;2024-01-30T11:27:27;0;0;
70436;PMS5003;57877;39.750;-104.894;2024-01-30T11:29:52;0;0;
70436;PMS5003;57877;39.750;-104.894;2024-01-30T11:34:42;0;0;
70436;PMS5003;57877;39.750;-104.894;2024-01-30T11:37:09;0;0;
70436;PMS5003;57877;39.750;-104.894;2024-01-30T11:39:32;0;0;
70436;PMS5003;57877;39.750;-104.894;2024-01-30T11:41:57;0;0;
70436;PMS5003;57877;39.750;-104.894;2024-01-30T11:44:22;0;0;
70436;PMS5003;57877;39.750;-104.894;2024-01-30T11:46:47;0;0;
70436;PMS5003;57877;39.750;-104.894;2024-01-30T11:49:12;0;0;
70436;PMS5003;57877;39.750;-104.894;2024-01-30T11:51:38;0;0;
70436;PMS5003;57877;39.750;-104.894;2024-01-30T11:54:02;0;0;
70436;PMS5003;57877;39.750;-104.894;2024-01-30T11:56:28;0;0;
70436;PMS5003;57877;39.750;-104.894;2024-01-30T11:58:53;0;0;
70436;PMS5003;57877;39.750;-104.894;2024-01-30T12:01:18;0;0;
70436;PMS5003;57877;39.750;-104.894;2024-01-30T12:03:43;0;0;
70436;PMS5003;57877;39.750;-104.894;2024-01-30T12:06:08;0;0;
70436;PMS5003;57877;39.750;-104.894;2024-01-30T12:08:33;0;0;
70436;PMS5003;57877;39.750;-104.894;2024-01-30T12:10:58;0;0;
70436;PMS5003;57877;39.750;-104.894;2024-01-30T12:13:23;0;0;
70436;PMS5003;57877;39.750;-104.894;2024-01-30T12:15:48;0;0;
70436;PMS5003;57877;39.750;-104.894;2024-01-30T12:18:13;0;0;
70436;PMS5003;57877;39.750;-104.894;2024-01-30T12:20:38;0;0;
70436;PMS5003;57877;39.750;-104.894;2024-01-30T12:23:04;0;0;
70436;PMS5003;57877;39.750;-104.894;2024-01-30T12:25:29;0;0;
70436;PMS5003;57877;39.750;-104.894;2024-01-30T12:27:54;0;0;
70436;PMS5003;57877;39.750;-104.894;2024-01-30T12:30:20;0;0;
70436;PMS5003;57877;39.750;-104.894;2024-01-30T12:32:45;0;0;
70436;PMS5003;57877;39.750;-104.894;2024-01-30T12:35:10;0;0;
70436;PMS5003;57877;39.750;-104.894;2024-01-30T12:37:35;0;0;
70436;PMS5003;57877;39.750;-104.894;2024-01-30T12:40:00;0;0;
70436;PMS5003;57877;39.750;-104.894;2024-01-30T12:42:26;0;0;
70436;PMS5003;57877;39.750;-104.894;2024-01-30T12:44:50;0;0;
70436;PMS5003;57877;39.750;-104.894;2024-01-30T12:47:15;0;0;
70436;PMS5003;57877;39.750;-104.894;2024-01-30T12:49:40;0;0;
70436;PMS5003;57877;39.750;-104.894;2024-01-30T12:52:05;0;0;
70436;PMS5003;57877;39.750;-104.894;2024-01-30T12:54:30;0;0;
70436;PMS5003;57877;39.750;-104.894;2024-01-30T12:56:55;0;0;
70436;PMS5003;57877;39.750;-104.894;2024-01-30T12:59:21;0;0;
70436;PMS5003;57877;39.750;-104.894;2024-01-30T13:01:46;0;0;
70436;PMS5003;57877;39.750;-104.894;2024-01-30T13:04:11;0;0;
70436;PMS5003;57877;39.750;-104.894;2024-01-30T13:06:36;0;0;
70436;PMS5003;57877;39.750;-104.894;2024-01-30T13:09:01;0;0;
70436;PMS5003;57877;39.750;-104.894;2024-01-30T13:11:26;0;0;
70436;PMS5003;57877;39.750;-104.894;2024-01-30T13:13:51;0;0;
70436;PMS5003;57877;39.750;-104.894;2024-01-30T13:16:16;0;0;
70436;PMS5003;57877;39.750;-104.894;2024-01-30T13:18:41;0;0;
70436;PMS5003;57877;39.750;-104.894;2024-01-30T13:21:07;0;0;
70436;PMS5003;57877;39.750;-104.894;2024-01-30T13:23:32;0;0;
70436;PMS5003;57877;39.750;-104.894;2024-01-30T13:25:57;0;0;
70436;PMS5003;57877;39.750;-104.894;2024-01-30T13:28:22;0;0;
70436;PMS5003;57877;39.750;-104.894;2024-01-30T13:30:47;0;0;
70436;PMS5003;57877;39.750;-104.894;2024-01-30T13:33:12;0;0;
70436;PMS5003;57877;39.750;-104.894;2024-01-30T13:35:37;0;0;
70436;PMS5003;57877;39.750;-104.894;2024-01-30T13:38:02;0;0;
70436;PMS5003;57877;39.750;-104.894;2024-01-30T13:40:28;0;0;
70436;PMS5003;57877;39.750;-104.894;2024-01-30T13:42:53;0;0;
70436;PMS5003;57877;39.750;-104.894;2024-01-30T13:45:18;0;0;
70436;PMS5003;57877;39.750;-104.894;2024-01-30T13:47:43;0;0;
70436;PMS5003;57877;39.750;-104.894;2024-01-30T13:50:08;0;0;
70436;PMS5003;57877;39.750;-104.894;2024-01-30T13:52:33;0;0;
70436;PMS5003;57877;39.750;-104.894;2024-01-30T13:54:58;0;0;
70436;PMS5003;57877;39.750;-104.894;2024-01-30T13:57:23;0;0;
70436;PMS5003;57877;39.750;-104.894;2024-01-30T13:59:48;0;0;
70436;PMS5003;57877;39.750;-104.894;2024-01-30T14:02:14;0;0;
70436;PMS5003;57877;39.750;-104.894;2024-01-30T14:04:39;0;0;
70436;PMS5003;57877;39.750;-104.894;2024-01-30T14:07:04;0;0;
70436;PMS5003;57877;39.750;-104.894;2024-01-30T14:09:29;0;0;
70436;PMS5003;57877;39.750;-104.894;2024-01-30T14:11:54;0;0;
70436;PMS5003;57877;39.750;-104.894;2024-01-30T14:14:19;0;0;
70436;PMS5003;57877;39.750;-104.894;2024-01-30T14:16:44;0;0;
70436;PMS5003;57877;39.750;-104.894;2024-01-30T14:19:09;0;0;
70436;PMS5003;57877;39.750;-104.894;2024-01-30T14:21:35;0;0;
70436;PMS5003;57877;39.750;-104.894;2024-01-30T14:24:00;0;0;
70436;PMS5003;57877;39.750;-104.894;2024-01-30T14:26:25;0;0;
70436;PMS5003;57877;39.750;-104.894;2024-01-30T14:28:50;0;0;
70436;PMS5003;57877;39.750;-104.894;2024-01-30T14:31:15;0;0;
70436;PMS5003;57877;39.750;-104.894;2024-01-30T14:33:40;0;0;
70436;PMS5003;57877;39.750;-104.894;2024-01-30T14:36:05;0;0;
70436;PMS5003;57877;39.750;-104.894;2024-01-30T14:38:30;0;0;
70436;PMS5003;57877;39.750;-104.894;2024-01-30T14:40:55;0;0;
70436;PMS5003;57877;39.750;-104.894;2024-01-30T14:43:21;0;0;
70436;PMS5003;57877;39.750;-104.894;2024-01-30T14:45:46;0;0;
70436;PMS5003;57877;39.750;-104.894;2024-01-30T14:48:11;0;0;
70436;PMS5003;57877;39.750;-104.894;2024-01-30T14:50:36;0;0;
70436;PMS5003;57877;39.750;-104.894;2024-01-30T14:53:01;0;0;
70436;PMS5003;57877;39.750;-104.894;2024-01-30T14:55:26;0;0;
70436;PMS5003;57877;39.750;-104.894;2024-01-30T14:57:51;0;0;
70436;PMS5003;57877;39.750;-104.894;2024-01-30T15:00:17;0;0;
70436;PMS5003;57877;39.750;-104.894;2024-01-30T15:02:41;0;0;
70436;PMS5003;57877;39.750;-104.894;2024-01-30T15:05:07;0;0;
70436;PMS5003;57877;39.750;-104.894;2024-01-30T15:07:32;0;0;
70436;PMS5003;57877;39.750;-104.894;2024-01-30T15:09:57;0;0;
70436;PMS5003;57877;39.750;-104.894;2024-01-30T15:12:22;0;0;
70436;PMS5003;57877;39.750;-104.894;2024-01-30T15:14:47;0;0;
70436;PMS5003;57877;39.750;-104.894;2024-01-30T15:17:12;0;0;
70436;PMS5003;57877;39.750;-104.894;2024-01-30T15:19:37;0;0;
70436;PMS5003;57877;39.750;-104.894;2024-01-30T15:22:03;0;0;
70436;PMS5003;57877;39.750;-104.894;2024-01-30T15:24:27;0;0;
70436;PMS5003;57877;39.750;-104.894;2024-01-30T15:26:53;0;0;
70436;PMS5003;57877;39.750;-104.894;2024-01-30T15:29:18;0;0;
70436;PMS5003;57877;39.750;-104.894;2024-01-30T15:31:43;4;4;
70436;PMS5003;57877;39.750;-104.894;2024-01-30T15:34:08;0;0;
70436;PMS5003;57877;39.750;-104.894;2024-01-30T15:36:33;0;0;
70436;PMS5003;57877;39.750;-104.894;2024-01-30T15:38:58;0;0;
70436;PMS5003;57877;39.750;-104.894;2024-01-30T15:41:23;0;0;
70436;PMS5003;57877;39.750;-104.894;2024-01-30T15:43:48;0;0;
70436;PMS5003;57877;39.750;-104.894;2024-01-30T15:46:14;0;0;
70436;PMS5003;57877;39.750;-104.894;2024-01-30T15:48:39;0;0;
70436;PMS5003;57877;39.750;-104.894;2024-01-30T15:51:04;0;0;
70436;PMS5003;57877;39.750;-104.894;2024-01-30T15:53:29;0;0;